Time;durP1;ratioP1;P1;durP2;ratioP2;P2;SDS_P1;SDS_P2;PMS_P1;PMS_P2;Temp;Humidity;BMP_temperature;BMP_pressure;BME280_temperature;BME280_humidity;BME280_pressure;Samples;Min_cycle;Max_cycle;Signal;HPM_P1;HPM_P2
2022/07/11 00:02:09;;;;;;;1.55;0.80;;;;;;;;;;4940333;29;20432;-88
2022/07/11 00:04:35;;;;;;;1.65;0.80;;;;;;;;;;4942700;29;20039;-87
2022/07/11 00:07:01;;;;;;;2.42;0.90;;;;;;;;;;4940647;29;20477;-87
2022/07/11 00:09:28;;;;;;;2.47;0.90;;;;;;;;;;4941219;29;20069;-87
2022/07/11 00:11:53;;;;;;;0.80;0.70;;;;;;;;;;4940923;29;20034;-87
2022/07/11 00:14:19;;;;;;;1.70;0.80;;;;;;;;;;4940258;29;20020;-86
2022/07/11 00:16:45;;;;;;;2.35;0.80;;;;;;;;;;4941912;29;20046;-87
2022/07/11 00:19:10;;;;;;;1.70;0.90;;;;;;;;;;4940495;29;20036;-87
2022/07/11 00:21:36;;;;;;;1.33;0.80;;;;;;;;;;4941876;29;20023;-87
2022/07/11 00:24:07;;;;;;;1.77;0.98;;;;;;;;;;4941405;29;20042;-87
2022/07/11 00:26:33;;;;;;;3.35;0.90;;;;;;;;;;4943253;29;20038;-86
2022/07/11 00:28:59;;;;;;;2.28;0.90;;;;;;;;;;4942201;29;20028;-87
2022/07/11 00:31:24;;;;;;;2.42;1.00;;;;;;;;;;4942717;29;20023;-87
2022/07/11 00:33:50;;;;;;;3.72;0.85;;;;;;;;;;4940707;29;20499;-87
2022/07/11 00:36:16;;;;;;;2.58;0.80;;;;;;;;;;4940092;29;20469;-86
2022/07/11 00:38:41;;;;;;;1.33;0.80;;;;;;;;;;4942038;29;20043;-87
2022/07/11 00:41:07;;;;;;;2.75;0.80;;;;;;;;;;4940453;29;20035;-87
2022/07/11 00:43:35;;;;;;;3.20;1.00;;;;;;;;;;4942493;29;20023;-86
2022/07/11 00:46:02;;;;;;;2.25;0.80;;;;;;;;;;4941923;29;20039;-87
2022/07/11 00:48:28;;;;;;;2.97;0.98;;;;;;;;;;4940447;29;20038;-86
2022/07/11 00:50:55;;;;;;;2.20;0.90;;;;;;;;;;4939437;29;20031;-87
2022/07/11 00:53:21;;;;;;;4.00;1.10;;;;;;;;;;4940136;29;20115;-87
2022/07/11 00:55:48;;;;;;;2.38;0.80;;;;;;;;;;4939679;29;20043;-86
2022/07/11 00:58:14;;;;;;;1.50;0.75;;;;;;;;;;4939745;29;20392;-88
2022/07/11 01:00:40;;;;;;;4.07;0.80;;;;;;;;;;4938518;29;20031;-88
2022/07/11 01:03:09;;;;;;;2.47;0.95;;;;;;;;;;4940100;29;20086;-87
2022/07/11 01:05:35;;;;;;;1.65;0.70;;;;;;;;;;4939496;29;20019;-87
2022/07/11 01:08:01;;;;;;;3.97;0.85;;;;;;;;;;4939927;29;20023;-87
2022/07/11 01:10:26;;;;;;;4.38;0.90;;;;;;;;;;4940336;29;20496;-87
2022/07/11 01:12:52;;;;;;;1.60;0.70;;;;;;;;;;4939527;29;20059;-87
2022/07/11 01:15:17;;;;;;;3.70;0.90;;;;;;;;;;4939208;29;20488;-86
2022/07/11 01:17:43;;;;;;;2.55;0.80;;;;;;;;;;4939049;29;20042;-87
2022/07/11 01:20:09;;;;;;;2.63;0.80;;;;;;;;;;4940713;29;20098;-86
2022/07/11 01:22:38;;;;;;;3.10;0.80;;;;;;;;;;4941286;29;20067;-85
2022/07/11 01:25:06;;;;;;;2.65;0.68;;;;;;;;;;4947950;29;20083;-84
2022/07/11 01:27:32;;;;;;;1.95;0.90;;;;;;;;;;4947688;29;20110;-84
2022/07/11 01:29:58;;;;;;;2.97;0.90;;;;;;;;;;4947064;29;20119;-84
2022/07/11 01:32:23;;;;;;;2.05;0.80;;;;;;;;;;4945541;29;20117;-85
2022/07/11 01:34:49;;;;;;;1.70;0.85;;;;;;;;;;4946951;29;20027;-84
2022/07/11 01:37:14;;;;;;;2.60;0.70;;;;;;;;;;4947399;29;20079;-85
2022/07/11 01:39:41;;;;;;;2.78;0.82;;;;;;;;;;4947140;29;20039;-85
2022/07/11 01:42:06;;;;;;;3.38;0.90;;;;;;;;;;4946775;29;20036;-86
2022/07/11 01:44:32;;;;;;;3.65;0.90;;;;;;;;;;4946530;29;20078;-85
2022/07/11 01:46:57;;;;;;;2.08;1.00;;;;;;;;;;4946321;29;20050;-85
2022/07/11 01:49:23;;;;;;;6.32;0.80;;;;;;;;;;4947011;29;20043;-84
2022/07/11 01:51:49;;;;;;;0.95;0.80;;;;;;;;;;4947810;29;20036;-85
2022/07/11 01:54:15;;;;;;;1.55;1.13;;;;;;;;;;4947460;29;20398;-85
2022/07/11 01:56:40;;;;;;;2.55;0.80;;;;;;;;;;4945884;29;20078;-84
2022/07/11 01:59:06;;;;;;;4.95;0.98;;;;;;;;;;4946724;29;20028;-85
2022/07/11 02:01:32;;;;;;;1.42;0.80;;;;;;;;;;4945933;29;20035;-85
2022/07/11 02:04:00;;;;;;;1.30;0.80;;;;;;;;;;4947091;29;20035;-85
2022/07/11 02:06:25;;;;;;;1.98;0.70;;;;;;;;;;4945719;29;20036;-84
2022/07/11 02:08:51;;;;;;;1.80;0.88;;;;;;;;;;4945705;29;20046;-85
2022/07/11 02:11:16;;;;;;;2.95;0.82;;;;;;;;;;4946662;29;20036;-85
2022/07/11 02:13:42;;;;;;;1.90;0.85;;;;;;;;;;4947282;29;20040;-84
2022/07/11 02:16:07;;;;;;;1.67;0.80;;;;;;;;;;4947126;29;20059;-85
2022/07/11 02:18:34;;;;;;;1.20;0.70;;;;;;;;;;4947005;29;20040;-84
2022/07/11 02:21:00;;;;;;;1.23;0.70;;;;;;;;;;4961748;29;20032;-84
2022/07/11 02:23:26;;;;;;;1.67;0.90;;;;;;;;;;4946622;29;20046;-84
2022/07/11 02:25:53;;;;;;;1.50;0.80;;;;;;;;;;4946940;29;20032;-85
2022/07/11 02:28:18;;;;;;;1.45;0.70;;;;;;;;;;4946231;29;20035;-85
2022/07/11 02:30:45;;;;;;;3.60;0.90;;;;;;;;;;4947281;29;20060;-85
2022/07/11 02:33:15;;;;;;;1.45;0.90;;;;;;;;;;4946751;29;20061;-84
2022/07/11 02:35:47;;;;;;;2.90;0.85;;;;;;;;;;4946411;29;20027;-85
2022/07/11 02:38:16;;;;;;;5.03;1.27;;;;;;;;;;4946807;29;20031;-84
2022/07/11 02:40:42;;;;;;;2.70;1.00;;;;;;;;;;4945361;29;20103;-85
2022/07/11 02:43:08;;;;;;;1.90;0.93;;;;;;;;;;4945923;29;20047;-85
2022/07/11 02:45:33;;;;;;;2.53;0.88;;;;;;;;;;4946258;29;20499;-84
2022/07/11 02:47:59;;;;;;;5.20;0.90;;;;;;;;;;4946322;29;20045;-85
2022/07/11 02:50:24;;;;;;;3.28;0.70;;;;;;;;;;4946253;29;20046;-84
2022/07/11 02:52:50;;;;;;;2.50;1.00;;;;;;;;;;4946055;29;20499;-85
2022/07/11 02:55:15;;;;;;;3.85;0.80;;;;;;;;;;4944643;29;20059;-85
2022/07/11 02:57:42;;;;;;;2.80;0.90;;;;;;;;;;4946307;29;20039;-85
2022/07/11 03:00:11;;;;;;;3.92;1.00;;;;;;;;;;4945730;29;20031;-84
2022/07/11 03:02:37;;;;;;;4.18;1.00;;;;;;;;;;4945296;29;20031;-85
2022/07/11 03:05:03;;;;;;;3.88;1.00;;;;;;;;;;4946165;29;20016;-84
2022/07/11 03:07:29;;;;;;;1.95;0.80;;;;;;;;;;4946250;29;20036;-85
2022/07/11 03:09:55;;;;;;;2.92;1.10;;;;;;;;;;4945702;29;20540;-85
2022/07/11 03:12:21;;;;;;;4.03;0.90;;;;;;;;;;4945897;29;20027;-85
2022/07/11 03:14:46;;;;;;;3.78;1.00;;;;;;;;;;4944285;29;20122;-85
2022/07/11 03:17:12;;;;;;;2.40;1.10;;;;;;;;;;4928338;29;20121;-84
2022/07/11 03:19:39;;;;;;;3.65;0.90;;;;;;;;;;4946358;29;20080;-84
2022/07/11 03:22:04;;;;;;;1.67;0.90;;;;;;;;;;4943787;29;20444;-84
2022/07/11 03:24:30;;;;;;;2.67;0.90;;;;;;;;;;4944835;29;20024;-84
2022/07/11 03:26:56;;;;;;;2.88;0.90;;;;;;;;;;4943424;29;20036;-84
2022/07/11 03:29:21;;;;;;;4.65;0.90;;;;;;;;;;4943144;29;20031;-84
2022/07/11 03:31:47;;;;;;;2.67;1.00;;;;;;;;;;4943514;29;20058;-85
2022/07/11 03:34:12;;;;;;;1.83;0.90;;;;;;;;;;4944006;29;20027;-85
2022/07/11 03:36:38;;;;;;;2.55;0.73;;;;;;;;;;4943880;29;20340;-84
2022/07/11 03:39:03;;;;;;;2.15;0.70;;;;;;;;;;4945342;29;20086;-84
2022/07/11 03:41:29;;;;;;;1.67;0.70;;;;;;;;;;4944794;29;20392;-85
2022/07/11 03:43:56;;;;;;;4.25;0.90;;;;;;;;;;4945322;29;20024;-85
2022/07/11 03:46:22;;;;;;;3.38;0.93;;;;;;;;;;4944472;29;20023;-85
2022/07/11 03:48:47;;;;;;;2.05;0.90;;;;;;;;;;4945053;29;20031;-84
2022/07/11 03:51:13;;;;;;;3.38;0.80;;;;;;;;;;4944482;29;20046;-85
2022/07/11 03:53:38;;;;;;;2.33;0.90;;;;;;;;;;4944503;29;20040;-84
2022/07/11 03:56:04;;;;;;;3.17;0.88;;;;;;;;;;4943693;29;20031;-84
2022/07/11 03:58:30;;;;;;;2.00;0.90;;;;;;;;;;4944597;29;20114;-85
2022/07/11 04:00:55;;;;;;;1.90;0.90;;;;;;;;;;4944802;29;20027;-85
2022/07/11 04:03:21;;;;;;;1.33;0.80;;;;;;;;;;4944833;29;20051;-84
2022/07/11 04:05:47;;;;;;;2.85;0.77;;;;;;;;;;4943725;29;20091;-85
2022/07/11 04:08:12;;;;;;;5.85;1.00;;;;;;;;;;4942933;29;20036;-83
2022/07/11 04:10:38;;;;;;;2.88;0.90;;;;;;;;;;4944757;29;20047;-84
2022/07/11 04:13:03;;;;;;;4.05;0.85;;;;;;;;;;4943637;29;20036;-84
2022/07/11 04:15:29;;;;;;;1.13;0.85;;;;;;;;;;4945114;29;20031;-85
2022/07/11 04:17:54;;;;;;;3.55;0.80;;;;;;;;;;4943681;29;20034;-84
2022/07/11 04:20:20;;;;;;;5.40;0.90;;;;;;;;;;4944057;29;20082;-84
2022/07/11 04:22:45;;;;;;;2.38;1.00;;;;;;;;;;4944133;29;20095;-85
2022/07/11 04:25:11;;;;;;;4.10;1.23;;;;;;;;;;4942359;29;20031;-84
2022/07/11 04:27:36;;;;;;;3.22;1.20;;;;;;;;;;4944055;29;20040;-85
2022/07/11 04:30:02;;;;;;;4.10;1.25;;;;;;;;;;4943817;29;20047;-84
2022/07/11 04:32:28;;;;;;;3.40;1.55;;;;;;;;;;4944703;29;20404;-85
2022/07/11 04:34:54;;;;;;;2.28;1.00;;;;;;;;;;4943930;29;20094;-84
2022/07/11 04:37:19;;;;;;;1.70;0.90;;;;;;;;;;4943298;29;20035;-85
2022/07/11 04:39:46;;;;;;;2.08;0.90;;;;;;;;;;4942860;29;20034;-84
2022/07/11 04:42:12;;;;;;;2.33;1.10;;;;;;;;;;4943477;29;20031;-84
2022/07/11 04:44:37;;;;;;;2.78;1.20;;;;;;;;;;4942826;29;20078;-84
2022/07/11 04:47:03;;;;;;;1.83;1.00;;;;;;;;;;4943877;29;20159;-84
2022/07/11 04:49:29;;;;;;;4.38;1.50;;;;;;;;;;4944005;29;20035;-84
2022/07/11 04:51:55;;;;;;;3.97;1.30;;;;;;;;;;4943505;29;20035;-85
2022/07/11 04:54:22;;;;;;;2.42;1.10;;;;;;;;;;4943656;29;20059;-85
2022/07/11 04:56:48;;;;;;;3.42;0.90;;;;;;;;;;4942834;29;20039;-84
2022/07/11 04:59:14;;;;;;;1.70;1.10;;;;;;;;;;4942023;29;20067;-84
2022/07/11 05:01:40;;;;;;;3.20;0.85;;;;;;;;;;4943209;29;20024;-84
2022/07/11 05:04:06;;;;;;;3.33;1.20;;;;;;;;;;4942956;29;20028;-84
2022/07/11 05:06:32;;;;;;;3.97;1.20;;;;;;;;;;4943011;29;20445;-84
2022/07/11 05:08:57;;;;;;;2.72;0.88;;;;;;;;;;4942926;29;20036;-84
2022/07/11 05:11:23;;;;;;;1.60;0.85;;;;;;;;;;4942822;29;20115;-84
2022/07/11 05:13:49;;;;;;;3.13;1.08;;;;;;;;;;4942728;29;20036;-84
2022/07/11 05:16:14;;;;;;;2.05;1.10;;;;;;;;;;4942501;29;20429;-84
2022/07/11 05:18:40;;;;;;;2.50;0.80;;;;;;;;;;4942352;29;20039;-84
2022/07/11 05:21:05;;;;;;;5.28;1.98;;;;;;;;;;4941640;29;20070;-85
2022/07/11 05:23:31;;;;;;;4.72;1.70;;;;;;;;;;4942136;29;20035;-84
2022/07/11 05:25:56;;;;;;;3.00;1.70;;;;;;;;;;4943486;29;20111;-84
2022/07/11 05:28:22;;;;;;;3.85;1.70;;;;;;;;;;4943393;29;20106;-84
2022/07/11 05:30:47;;;;;;;3.03;1.50;;;;;;;;;;4942933;29;20066;-84
2022/07/11 05:33:13;;;;;;;5.47;2.00;;;;;;;;;;4942106;29;20064;-85
2022/07/11 05:35:38;;;;;;;3.85;1.58;;;;;;;;;;4941536;29;20441;-84
2022/07/11 05:38:04;;;;;;;8.73;1.75;;;;;;;;;;4942530;29;20067;-85
2022/07/11 05:40:29;;;;;;;5.05;1.30;;;;;;;;;;4943179;29;20596;-84
2022/07/11 05:42:55;;;;;;;3.28;1.40;;;;;;;;;;4943140;29;20114;-84
2022/07/11 05:45:20;;;;;;;3.65;1.40;;;;;;;;;;4941085;29;20111;-84
2022/07/11 05:47:46;;;;;;;5.78;1.02;;;;;;;;;;4941094;29;20039;-84
2022/07/11 05:50:11;;;;;;;4.20;1.10;;;;;;;;;;4941326;29;20115;-84
2022/07/11 05:52:37;;;;;;;2.58;1.02;;;;;;;;;;4942612;29;20032;-84
2022/07/11 05:55:03;;;;;;;2.28;0.85;;;;;;;;;;4941448;29;20039;-83
2022/07/11 05:57:29;;;;;;;3.03;0.90;;;;;;;;;;4944008;29;20046;-83
2022/07/11 05:59:54;;;;;;;2.58;0.88;;;;;;;;;;4941977;29;20035;-83
2022/07/11 06:02:20;;;;;;;4.70;1.23;;;;;;;;;;4942725;29;20046;-83
2022/07/11 06:04:45;;;;;;;3.88;0.90;;;;;;;;;;4944791;29;20032;-83
2022/07/11 06:07:11;;;;;;;4.38;1.10;;;;;;;;;;4942691;29;20035;-82
2022/07/11 06:09:37;;;;;;;2.15;0.90;;;;;;;;;;4944229;29;20041;-84
2022/07/11 06:12:03;;;;;;;3.95;0.90;;;;;;;;;;4946145;29;20040;-83
2022/07/11 06:14:28;;;;;;;2.53;1.13;;;;;;;;;;4944803;29;20036;-83
2022/07/11 06:16:54;;;;;;;3.10;0.90;;;;;;;;;;4944004;29;20020;-84
2022/07/11 06:19:19;;;;;;;1.95;0.85;;;;;;;;;;4941438;29;20200;-83
2022/07/11 06:21:45;;;;;;;4.05;0.90;;;;;;;;;;4942367;29;20087;-83
2022/07/11 06:24:10;;;;;;;2.20;0.80;;;;;;;;;;4946572;29;20036;-85
2022/07/11 06:26:36;;;;;;;3.30;0.90;;;;;;;;;;4942569;29;20531;-84
2022/07/11 06:29:02;;;;;;;3.15;0.85;;;;;;;;;;4941714;29;20058;-83
2022/07/11 06:31:28;;;;;;;1.83;0.80;;;;;;;;;;4940902;29;20507;-84
2022/07/11 06:33:57;;;;;;;2.55;0.80;;;;;;;;;;4941344;29;20016;-83
2022/07/11 06:36:26;;;;;;;5.75;0.70;;;;;;;;;;4942030;29;20095;-83
2022/07/11 06:38:53;;;;;;;4.70;1.02;;;;;;;;;;4944506;29;20028;-82
2022/07/11 06:41:19;;;;;;;5.15;1.27;;;;;;;;;;4944897;29;20038;-84
2022/07/11 06:43:47;;;;;;;4.53;1.10;;;;;;;;;;4946169;29;20106;-83
2022/07/11 06:46:14;;;;;;;4.90;1.13;;;;;;;;;;4946011;29;20110;-83
2022/07/11 06:48:40;;;;;;;3.10;1.00;;;;;;;;;;4947906;29;20042;-83
2022/07/11 06:51:06;;;;;;;2.22;0.80;;;;;;;;;;4946337;29;20035;-83
2022/07/11 06:53:31;;;;;;;4.65;0.80;;;;;;;;;;4943694;29;20066;-82
2022/07/11 06:55:57;;;;;;;1.83;0.70;;;;;;;;;;4948913;29;20039;-83
2022/07/11 06:58:34;;;;;;;1.15;0.82;;;;;;;;;;4946188;29;20043;-83
2022/07/11 07:01:05;;;;;;;2.17;0.85;;;;;;;;;;4945893;29;20036;-84
2022/07/11 07:03:32;;;;;;;2.25;0.88;;;;;;;;;;4948394;29;20095;-84
2022/07/11 07:05:58;;;;;;;3.80;0.70;;;;;;;;;;4946247;29;20042;-86
2022/07/11 07:08:25;;;;;;;1.33;1.00;;;;;;;;;;4941465;29;20024;-86
2022/07/11 07:10:52;;;;;;;2.03;0.85;;;;;;;;;;4943313;29;20066;-86
2022/07/11 07:13:18;;;;;;;1.60;0.80;;;;;;;;;;4941367;29;20028;-84
2022/07/11 07:15:43;;;;;;;3.00;1.10;;;;;;;;;;4940313;29;20035;-84
2022/07/11 07:18:09;;;;;;;5.30;0.98;;;;;;;;;;4940178;29;20059;-86
2022/07/11 07:20:34;;;;;;;1.05;0.70;;;;;;;;;;4938574;29;20118;-85
2022/07/11 07:23:00;;;;;;;1.77;0.73;;;;;;;;;;4941066;29;20023;-84
2022/07/11 07:25:25;;;;;;;2.58;0.75;;;;;;;;;;4937717;29;20055;-84
2022/07/11 07:27:51;;;;;;;1.95;0.70;;;;;;;;;;4938099;29;20047;-83
2022/07/11 07:30:17;;;;;;;2.80;1.00;;;;;;;;;;4940021;29;20023;-86
2022/07/11 07:32:43;;;;;;;2.25;0.88;;;;;;;;;;4940161;29;20035;-86
2022/07/11 07:35:09;;;;;;;2.05;0.77;;;;;;;;;;4937425;29;20036;-86
2022/07/11 07:37:34;;;;;;;2.00;0.75;;;;;;;;;;4938861;29;20028;-87
2022/07/11 07:40:00;;;;;;;2.63;0.80;;;;;;;;;;4940797;29;20032;-85
2022/07/11 07:42:25;;;;;;;2.28;0.82;;;;;;;;;;4937978;29;20134;-86
2022/07/11 07:44:51;;;;;;;2.05;0.80;;;;;;;;;;4938657;29;20034;-85
2022/07/11 07:47:16;;;;;;;2.47;0.80;;;;;;;;;;4939030;29;20039;-86
2022/07/11 07:49:42;;;;;;;1.85;0.80;;;;;;;;;;4937661;29;20118;-86
2022/07/11 07:52:07;;;;;;;3.45;0.90;;;;;;;;;;4938846;29;20038;-85
2022/07/11 07:54:33;;;;;;;1.98;0.70;;;;;;;;;;4937912;29;20091;-85
2022/07/11 07:56:58;;;;;;;3.55;0.80;;;;;;;;;;4938921;29;20043;-86
2022/07/11 07:59:24;;;;;;;3.22;0.73;;;;;;;;;;4938830;29;20031;-86
2022/07/11 08:01:54;;;;;;;2.72;0.80;;;;;;;;;;4939191;29;20032;-86
2022/07/11 08:04:19;;;;;;;1.52;0.70;;;;;;;;;;4937923;29;20054;-86
2022/07/11 08:06:45;;;;;;;2.35;0.70;;;;;;;;;;4938772;29;20023;-85
2022/07/11 08:09:12;;;;;;;1.35;0.73;;;;;;;;;;4938351;29;20028;-86
2022/07/11 08:11:38;;;;;;;2.42;0.70;;;;;;;;;;4936832;29;20023;-85
2022/07/11 08:14:04;;;;;;;2.63;0.70;;;;;;;;;;4939122;29;20040;-87
2022/07/11 08:16:31;;;;;;;1.98;0.55;;;;;;;;;;4938154;29;20047;-85
2022/07/11 08:19:01;;;;;;;2.75;0.70;;;;;;;;;;4936264;29;20404;-86
2022/07/11 08:21:28;;;;;;;3.40;0.70;;;;;;;;;;4937304;29;20042;-86
2022/07/11 08:23:54;;;;;;;1.90;0.60;;;;;;;;;;4938800;29;20027;-85
2022/07/11 08:26:20;;;;;;;1.95;0.60;;;;;;;;;;4937298;29;20032;-84
2022/07/11 08:28:45;;;;;;;1.15;0.60;;;;;;;;;;4937211;29;20043;-86
2022/07/11 08:31:11;;;;;;;1.85;0.77;;;;;;;;;;4936749;29;20483;-85
2022/07/11 08:33:37;;;;;;;2.10;0.60;;;;;;;;;;4938258;29;20047;-86
2022/07/11 08:36:03;;;;;;;2.63;0.70;;;;;;;;;;4936972;29;20485;-86
2022/07/11 08:38:28;;;;;;;1.05;0.50;;;;;;;;;;4937050;29;20034;-86
2022/07/11 08:40:54;;;;;;;0.80;0.50;;;;;;;;;;4939434;29;20489;-87
2022/07/11 08:43:25;;;;;;;1.90;0.60;;;;;;;;;;4938451;29;20035;-87
2022/07/11 08:45:51;;;;;;;0.90;0.47;;;;;;;;;;4938560;29;20373;-87
2022/07/11 08:48:19;;;;;;;0.77;0.50;;;;;;;;;;4937001;29;20058;-87
2022/07/11 08:50:44;;;;;;;1.85;0.50;;;;;;;;;;4939136;29;20055;-87
2022/07/11 08:53:10;;;;;;;3.67;0.50;;;;;;;;;;4938031;29;20032;-87
2022/07/11 08:55:35;;;;;;;1.23;0.50;;;;;;;;;;4937945;29;20429;-87
2022/07/11 08:58:02;;;;;;;0.43;0.40;;;;;;;;;;4939131;29;20036;-87
2022/07/11 09:00:27;;;;;;;0.95;0.52;;;;;;;;;;4938818;29;20039;-87
2022/07/11 09:02:53;;;;;;;0.50;0.50;;;;;;;;;;4937486;29;20031;-87
2022/07/11 09:05:19;;;;;;;2.15;0.50;;;;;;;;;;4936310;29;20044;-88
2022/07/11 09:07:46;;;;;;;0.38;0.38;;;;;;;;;;4938232;29;20037;-86
2022/07/11 09:10:13;;;;;;;0.93;0.40;;;;;;;;;;4937503;29;20421;-86
2022/07/11 09:13:02;;;;;;;0.93;0.55;;;;;;;;;;4939006;29;20051;-87
2022/07/11 09:15:35;;;;;;;1.33;0.52;;;;;;;;;;4937800;29;20039;-86
2022/07/11 09:18:02;;;;;;;2.05;0.50;;;;;;;;;;4940252;29;20034;-87
2022/07/11 09:25:19;;;;;;;2.13;0.50;;;;;;;;;;4940309;29;20046;-87
2022/07/11 09:26:05;;;;;;;0.80;0.50;;;;;;;;;;4938421;29;20049;-87
2022/07/11 09:28:30;;;;;;;2.80;0.52;;;;;;;;;;4939358;29;20532;-87
2022/07/11 09:30:56;;;;;;;0.85;0.30;;;;;;;;;;4938725;29;20477;-87
2022/07/11 09:33:22;;;;;;;2.47;0.52;;;;;;;;;;4939459;29;20090;-87
2022/07/11 09:35:47;;;;;;;4.20;0.60;;;;;;;;;;4938637;29;20035;-86
2022/07/11 09:38:16;;;;;;;1.52;0.40;;;;;;;;;;4938885;29;20042;-87
2022/07/11 09:40:46;;;;;;;1.27;0.52;;;;;;;;;;4938403;29;20075;-87
2022/07/11 09:43:12;;;;;;;0.93;0.43;;;;;;;;;;4938838;29;20106;-87
2022/07/11 09:45:39;;;;;;;0.47;0.47;;;;;;;;;;4941666;29;20440;-87
2022/07/11 09:48:10;;;;;;;1.33;0.55;;;;;;;;;;4941501;29;20035;-87
2022/07/11 09:50:39;;;;;;;0.82;0.47;;;;;;;;;;4941631;29;20034;-87
2022/07/11 09:53:12;;;;;;;1.65;0.65;;;;;;;;;;4941872;29;20031;-87
2022/07/11 09:55:40;;;;;;;1.50;0.40;;;;;;;;;;4942684;29;20118;-87
2022/07/11 09:58:08;;;;;;;0.30;0.28;;;;;;;;;;4944242;29;20075;-87
2022/07/11 10:00:35;;;;;;;1.27;0.50;;;;;;;;;;4945617;29;20474;-87
2022/07/11 10:03:02;;;;;;;1.25;0.60;;;;;;;;;;4949612;29;20035;-87
2022/07/11 10:05:28;;;;;;;0.88;0.50;;;;;;;;;;4944661;29;20473;-88
2022/07/11 10:07:55;;;;;;;0.40;0.40;;;;;;;;;;4939568;29;20028;-86
2022/07/11 10:10:21;;;;;;;1.73;0.50;;;;;;;;;;4943885;29;20123;-86
2022/07/11 10:12:47;;;;;;;1.55;0.55;;;;;;;;;;4940679;29;20436;-85
2022/07/11 10:15:18;;;;;;;0.60;0.45;;;;;;;;;;4943127;29;20024;-86
2022/07/11 10:18:02;;;;;;;0.85;0.52;;;;;;;;;;4942360;29;20031;-86
2022/07/11 10:20:54;;;;;;;0.57;0.30;;;;;;;;;;4942708;29;20039;-85
2022/07/11 10:23:23;;;;;;;0.82;0.50;;;;;;;;;;4941123;29;20063;-86
2022/07/11 10:26:03;;;;;;;2.50;0.70;;;;;;;;;;4940787;29;20031;-86
2022/07/11 10:28:45;;;;;;;0.88;0.70;;;;;;;;;;4940905;29;20451;-86
2022/07/11 10:31:19;;;;;;;0.43;0.40;;;;;;;;;;4940715;29;20365;-86
2022/07/11 10:34:05;;;;;;;1.95;0.70;;;;;;;;;;4940710;29;20038;-86
2022/07/11 10:36:33;;;;;;;1.35;0.70;;;;;;;;;;4940872;29;20114;-86
2022/07/11 10:39:29;;;;;;;0.88;0.50;;;;;;;;;;4940311;29;20126;-85
2022/07/11 10:41:56;;;;;;;0.68;0.40;;;;;;;;;;4940971;29;20032;-85
2022/07/11 10:44:23;;;;;;;2.60;0.50;;;;;;;;;;4940105;29;20074;-86
2022/07/11 10:46:48;;;;;;;1.30;0.60;;;;;;;;;;4940114;29;20031;-86
2022/07/11 10:49:14;;;;;;;1.17;0.50;;;;;;;;;;4939145;29;20032;-86
2022/07/11 10:51:50;;;;;;;1.13;0.70;;;;;;;;;;4939354;29;20043;-86
2022/07/11 10:54:47;;;;;;;3.55;0.60;;;;;;;;;;4939794;29;20031;-85
2022/07/11 10:57:26;;;;;;;2.35;0.73;;;;;;;;;;4937857;29;20039;-86
2022/07/11 10:59:55;;;;;;;2.45;0.70;;;;;;;;;;4939055;29;20106;-86
2022/07/11 11:02:21;;;;;;;0.90;0.60;;;;;;;;;;4939239;29;20042;-87
2022/07/11 11:04:58;;;;;;;1.98;0.57;;;;;;;;;;4938749;29;20170;-86
2022/07/11 11:07:34;;;;;;;1.88;0.57;;;;;;;;;;4939621;29;20059;-85
2022/07/11 11:10:01;;;;;;;1.38;0.70;;;;;;;;;;4939389;29;20441;-86
2022/07/11 11:13:09;;;;;;;2.55;0.82;;;;;;;;;;4939330;29;20465;-85
2022/07/11 11:15:38;;;;;;;1.35;0.70;;;;;;;;;;4939900;29;20052;-86
2022/07/11 11:18:25;;;;;;;0.93;0.55;;;;;;;;;;4940566;29;20037;-86
2022/07/11 11:21:02;;;;;;;2.75;0.60;;;;;;;;;;4939122;29;20032;-85
2022/07/11 11:23:36;;;;;;;1.67;0.70;;;;;;;;;;4939158;29;20127;-86
2022/07/11 11:26:19;;;;;;;2.15;0.85;;;;;;;;;;4940259;29;20031;-85
2022/07/11 11:28:58;;;;;;;2.47;0.70;;;;;;;;;;4939209;29;20035;-84
2022/07/11 11:31:29;;;;;;;1.20;0.65;;;;;;;;;;4922164;29;20862;-85
2022/07/11 11:33:56;;;;;;;1.67;0.73;;;;;;;;;;4939877;29;20039;-84
2022/07/11 11:36:23;;;;;;;2.03;0.60;;;;;;;;;;4939290;29;20111;-84
2022/07/11 11:38:49;;;;;;;1.05;0.57;;;;;;;;;;4939044;29;20041;-85
2022/07/11 11:41:31;;;;;;;2.92;0.70;;;;;;;;;;4940819;29;20099;-88
2022/07/11 11:44:01;;;;;;;3.95;0.70;;;;;;;;;;4944282;29;20028;-88
2022/07/11 11:46:28;;;;;;;2.80;0.60;;;;;;;;;;4941615;29;20043;-89
2022/07/11 11:49:04;;;;;;;2.55;0.60;;;;;;;;;;4940285;29;20020;-88
2022/07/11 11:51:31;;;;;;;1.27;0.60;;;;;;;;;;4938727;29;20043;-88
2022/07/11 11:54:14;;;;;;;1.55;0.63;;;;;;;;;;4954665;29;20031;-89
2022/07/11 11:56:41;;;;;;;1.83;0.70;;;;;;;;;;4938864;29;20388;-90
2022/07/11 11:59:27;;;;;;;2.83;0.60;;;;;;;;;;4939558;29;20028;-89
2022/07/11 12:01:53;;;;;;;2.00;0.52;;;;;;;;;;4941852;29;20066;-88
2022/07/11 12:04:31;;;;;;;2.28;0.70;;;;;;;;;;4941102;29;20031;-89
2022/07/11 12:06:57;;;;;;;2.42;0.80;;;;;;;;;;4941491;29;20039;-88
2022/07/11 12:09:46;;;;;;;1.17;0.65;;;;;;;;;;4928103;29;20488;-88
2022/07/11 12:14:54;;;;;;;1.25;0.60;;;;;;;;;;4944636;29;20043;-88
2022/07/11 12:17:26;;;;;;;1.65;0.65;;;;;;;;;;4945303;29;20042;-88
2022/07/11 12:19:54;;;;;;;1.27;0.60;;;;;;;;;;4947706;29;20039;-87
2022/07/11 12:22:49;;;;;;;1.50;0.63;;;;;;;;;;4941263;29;20124;-87
2022/07/11 12:25:17;;;;;;;2.40;0.90;;;;;;;;;;4940712;29;20091;-88
2022/07/11 12:28:21;;;;;;;4.13;0.73;;;;;;;;;;4941706;29;20440;-88
2022/07/11 12:30:58;;;;;;;1.63;0.70;;;;;;;;;;4939648;29;20034;-88
2022/07/11 12:33:24;;;;;;;2.40;0.63;;;;;;;;;;4938860;29;20515;-88
2022/07/11 12:35:54;;;;;;;1.27;0.65;;;;;;;;;;4939668;29;20035;-89
2022/07/11 12:38:54;;;;;;;1.17;0.60;;;;;;;;;;5427123;23;20047;-88
2022/07/11 12:41:30;;;;;;;2.40;0.70;;;;;;;;;;4956442;29;20031;-87
2022/07/11 12:46:52;;;;;;;5.35;0.90;;;;;;;;;;4957229;28;20097;-89
2022/07/11 12:49:18;;;;;;;8.93;0.90;;;;;;;;;;4957890;28;20031;-88
2022/07/11 12:51:45;;;;;;;2.40;0.70;;;;;;;;;;4957388;28;20380;-88
2022/07/11 12:54:20;;;;;;;1.50;0.80;;;;;;;;;;4957353;29;20480;-88
2022/07/11 12:56:58;;;;;;;2.33;0.63;;;;;;;;;;4958036;28;20031;-88
2022/07/11 12:59:25;;;;;;;2.63;0.65;;;;;;;;;;4958572;28;20045;-87
2022/07/11 13:02:26;;;;;;;2.20;0.60;;;;;;;;;;4958917;28;20035;-88
2022/07/11 13:05:19;;;;;;;2.08;0.80;;;;;;;;;;4958950;28;20089;-87
2022/07/11 13:10:51;;;;;;;2.35;0.80;;;;;;;;;;4958557;29;20034;-88
2022/07/11 13:13:26;;;;;;;1.13;0.70;;;;;;;;;;4973311;28;20101;-88
2022/07/11 13:15:51;;;;;;;1.42;0.70;;;;;;;;;;4957132;29;20094;-88
2022/07/11 13:18:17;;;;;;;0.93;0.52;;;;;;;;;;4956764;28;20129;-88
2022/07/11 13:20:52;;;;;;;1.48;0.75;;;;;;;;;;4960902;28;20031;-88
2022/07/11 13:23:37;;;;;;;1.63;0.70;;;;;;;;;;4962998;29;20091;-89
2022/07/11 13:26:05;;;;;;;2.38;0.88;;;;;;;;;;4978205;28;20038;-88
2022/07/11 13:28:30;;;;;;;1.40;0.80;;;;;;;;;;4977790;28;20042;-88
2022/07/11 13:30:57;;;;;;;1.75;0.73;;;;;;;;;;4962033;28;20034;-87
2022/07/11 13:33:22;;;;;;;2.45;0.90;;;;;;;;;;4961912;28;20094;-88
2022/07/11 13:35:49;;;;;;;1.02;0.73;;;;;;;;;;4961481;28;20039;-88
2022/07/11 13:38:15;;;;;;;3.53;0.77;;;;;;;;;;4962482;28;20058;-87
2022/07/11 13:40:42;;;;;;;3.60;0.90;;;;;;;;;;4966978;28;20499;-85
2022/07/11 13:43:14;;;;;;;2.63;0.95;;;;;;;;;;4965240;28;20051;-87
2022/07/11 13:45:44;;;;;;;2.67;1.00;;;;;;;;;;4963358;29;20039;-88
2022/07/11 13:48:17;;;;;;;1.73;0.70;;;;;;;;;;4966766;28;20042;-87
2022/07/11 13:50:49;;;;;;;1.73;0.90;;;;;;;;;;4960368;29;20472;-88
2022/07/11 13:53:22;;;;;;;2.28;0.93;;;;;;;;;;4961656;28;20023;-88
2022/07/11 13:55:48;;;;;;;2.22;0.80;;;;;;;;;;4961413;28;20090;-88
2022/07/11 13:58:26;;;;;;;2.08;0.90;;;;;;;;;;4944784;29;20488;-88
2022/07/11 14:00:52;;;;;;;4.50;1.10;;;;;;;;;;4976083;28;20054;-88
2022/07/11 14:03:17;;;;;;;3.67;0.90;;;;;;;;;;4960217;29;20094;-86
2022/07/11 14:05:46;;;;;;;1.02;0.73;;;;;;;;;;4959999;28;20035;-86
2022/07/11 14:08:11;;;;;;;2.20;0.88;;;;;;;;;;4959765;28;20059;-86
2022/07/11 14:10:37;;;;;;;1.20;0.80;;;;;;;;;;4974871;28;20031;-86
2022/07/11 14:13:03;;;;;;;2.63;1.00;;;;;;;;;;4958697;28;20035;-85
2022/07/11 14:15:28;;;;;;;2.38;0.80;;;;;;;;;;4941414;29;20749;-85
2022/07/11 14:17:54;;;;;;;2.05;0.80;;;;;;;;;;4958893;28;20042;-84
2022/07/11 14:20:19;;;;;;;2.50;0.73;;;;;;;;;;4957757;29;20081;-84
2022/07/11 14:22:45;;;;;;;2.15;0.80;;;;;;;;;;4959807;28;20499;-84
2022/07/11 14:25:11;;;;;;;1.13;0.70;;;;;;;;;;4968226;28;20027;-84
2022/07/11 14:27:36;;;;;;;1.05;0.68;;;;;;;;;;4964927;28;20070;-87
2022/07/11 14:30:06;;;;;;;1.65;0.80;;;;;;;;;;4971689;28;20035;-87
2022/07/11 14:32:33;;;;;;;2.97;0.90;;;;;;;;;;4980540;28;20050;-87
2022/07/11 14:35:14;;;;;;;2.78;0.60;;;;;;;;;;4968791;28;20039;-89
2022/07/11 14:37:39;;;;;;;2.42;0.70;;;;;;;;;;4974733;28;20047;-86
2022/07/11 14:40:06;;;;;;;2.25;0.80;;;;;;;;;;4969742;28;20073;-88
2022/07/11 14:42:32;;;;;;;1.55;0.77;;;;;;;;;;4976250;28;20111;-89
2022/07/11 14:44:57;;;;;;;2.08;0.80;;;;;;;;;;4961178;28;20031;-88
2022/07/11 14:47:23;;;;;;;2.50;0.90;;;;;;;;;;4961654;28;20097;-88
2022/07/11 14:49:48;;;;;;;1.98;0.80;;;;;;;;;;4962299;28;20027;-89
2022/07/11 14:52:14;;;;;;;2.45;0.82;;;;;;;;;;4962250;28;20031;-88
2022/07/11 14:54:39;;;;;;;3.78;0.90;;;;;;;;;;4960676;29;20035;-88
2022/07/11 14:57:05;;;;;;;1.58;0.80;;;;;;;;;;4962375;28;20042;-88
2022/07/11 14:59:30;;;;;;;1.85;0.77;;;;;;;;;;4962640;29;20027;-87
2022/07/11 15:01:56;;;;;;;3.22;0.90;;;;;;;;;;4968028;28;20469;-85